createdAt,value
2023-03-29T00:00:14.648Z,20.8547
2023-03-29T00:01:35.051Z,20.8559
2023-03-29T00:02:17.918Z,20.8609
2023-03-29T00:03:19.729Z,20.8672
2023-03-29T00:04:21.226Z,20.8734
2023-03-29T00:05:22.853Z,20.8732
2023-03-29T00:06:24.532Z,20.8783
2023-03-29T00:07:26.183Z,20.8765
2023-03-29T00:08:27.836Z,20.8799
2023-03-29T00:09:29.484Z,20.8821
2023-03-29T00:10:31.120Z,20.8861
2023-03-29T00:11:32.800Z,20.8799
2023-03-29T00:12:34.428Z,20.8798
2023-03-29T00:13:36.128Z,20.8858
2023-03-29T00:14:37.734Z,20.8921
2023-03-29T00:15:39.405Z,20.8965
2023-03-29T00:16:41.071Z,20.8976
2023-03-29T00:17:42.767Z,20.8919
2023-03-29T00:18:44.385Z,20.8933
2023-03-29T00:19:46.023Z,20.8929
2023-03-29T00:20:47.666Z,20.8964
2023-03-29T00:21:49.322Z,20.9039
2023-03-29T00:22:50.967Z,20.9073
2023-03-29T00:23:52.670Z,20.9109
2023-03-29T00:24:54.319Z,20.9126
2023-03-29T00:25:55.957Z,20.9132
2023-03-29T00:26:57.610Z,20.9125
2023-03-29T00:27:59.268Z,20.9149
2023-03-29T00:29:00.943Z,20.9166
2023-03-29T00:30:02.570Z,20.9177
2023-03-29T00:31:04.430Z,20.9174
2023-03-29T00:32:05.877Z,20.9227
2023-03-29T00:33:07.554Z,20.9234
2023-03-29T00:34:09.199Z,20.9204
2023-03-29T00:35:10.825Z,20.9254
2023-03-29T00:36:12.497Z,20.9290
2023-03-29T00:37:14.112Z,20.9328
2023-03-29T00:38:15.798Z,20.9351
2023-03-29T00:39:17.449Z,20.9368
2023-03-29T00:40:19.099Z,20.9364
2023-03-29T00:41:20.734Z,20.9362
2023-03-29T00:42:22.407Z,20.9361
2023-03-29T00:43:24.041Z,20.9338
2023-03-29T00:44:25.744Z,20.9382
2023-03-29T00:45:27.354Z,20.9371
2023-03-29T00:46:29.108Z,20.9387
2023-03-29T00:47:30.671Z,20.9455
2023-03-29T00:48:32.383Z,20.9483
2023-03-29T00:49:33.994Z,20.9461
2023-03-29T00:50:35.647Z,20.9430
2023-03-29T00:51:37.291Z,20.9434
2023-03-29T00:52:38.950Z,20.9426
2023-03-29T00:53:40.580Z,20.9516
2023-03-29T00:54:42.294Z,20.9654
2023-03-29T00:55:43.895Z,20.9704
2023-03-29T00:56:45.578Z,20.9753
2023-03-29T00:57:47.200Z,20.9798
2023-03-29T00:58:48.871Z,20.9827
2023-03-29T00:59:50.579Z,20.9821
2023-03-29T01:00:52.206Z,20.9793
2023-03-29T01:01:53.871Z,20.9834
2023-03-29T01:02:55.538Z,20.9865
2023-03-29T01:03:57.154Z,20.9795
2023-03-29T01:04:58.817Z,20.9861
2023-03-29T01:06:00.462Z,20.9919
2023-03-29T01:07:02.159Z,20.9981
2023-03-29T01:08:03.757Z,20.9944
2023-03-29T01:09:05.419Z,20.9970
2023-03-29T01:10:07.085Z,21.0059
2023-03-29T01:11:08.735Z,21.0074
2023-03-29T01:12:10.388Z,21.0039
2023-03-29T01:13:12.043Z,21.0033
2023-03-29T01:14:13.684Z,21.0015
2023-03-29T01:15:15.398Z,21.0018
2023-03-29T01:16:17.094Z,21.0029
2023-03-29T01:17:18.683Z,21.0040
2023-03-29T01:18:20.307Z,21.0147
2023-03-29T01:19:21.977Z,21.0152
2023-03-29T01:20:23.635Z,21.0173
2023-03-29T01:21:25.285Z,21.0175
2023-03-29T01:22:26.931Z,21.0189
2023-03-29T01:23:28.599Z,21.0257
2023-03-29T01:24:30.225Z,21.0269
2023-03-29T01:25:31.918Z,21.0303
2023-03-29T01:26:33.540Z,21.0384
2023-03-29T01:27:35.208Z,21.0410
2023-03-29T01:28:36.847Z,21.0401
2023-03-29T01:29:38.507Z,21.0448
2023-03-29T01:30:40.173Z,21.0460
2023-03-29T01:31:41.902Z,21.0453
2023-03-29T01:32:43.450Z,21.0461
2023-03-29T01:33:45.142Z,21.0379
2023-03-29T01:34:46.802Z,21.0409
2023-03-29T01:35:48.521Z,21.0411
2023-03-29T01:36:50.073Z,21.0298
2023-03-29T01:37:51.760Z,21.0208
2023-03-29T01:38:53.401Z,21.0259
2023-03-29T01:39:55.061Z,21.0348
2023-03-29T01:40:56.722Z,21.0477
2023-03-29T01:41:58.367Z,21.0476
2023-03-29T01:43:00.024Z,21.0437
2023-03-29T01:44:01.692Z,21.0375
2023-03-29T01:45:03.325Z,21.0280
2023-03-29T01:46:05.454Z,21.0147
2023-03-29T01:47:06.630Z,21.0061
2023-03-29T01:48:08.303Z,20.9878
2023-03-29T01:49:09.950Z,20.9822
2023-03-29T01:50:11.620Z,20.9845
2023-03-29T01:51:13.316Z,20.9932
2023-03-29T01:52:14.941Z,20.9999
2023-03-29T01:53:16.572Z,21.0038
2023-03-29T01:54:18.245Z,21.0022
2023-03-29T01:55:19.879Z,20.9940
2023-03-29T01:56:21.571Z,21.0056
2023-03-29T01:57:23.276Z,21.0055
2023-03-29T01:58:24.861Z,20.9926
2023-03-29T01:59:26.500Z,21.0116
2023-03-29T02:00:28.152Z,21.0293
2023-03-29T02:01:29.841Z,21.0500
2023-03-29T02:02:31.560Z,21.0693
2023-03-29T02:03:33.199Z,21.0836
2023-03-29T02:04:34.796Z,21.0886
2023-03-29T02:05:36.409Z,21.0937
2023-03-29T02:06:38.100Z,21.1004
2023-03-29T02:07:39.713Z,21.1028
2023-03-29T02:08:41.386Z,21.1133
2023-03-29T02:09:43.022Z,21.1173
2023-03-29T02:10:44.692Z,21.1131
2023-03-29T02:11:46.353Z,21.1138
2023-03-29T02:12:48.001Z,21.1191
2023-03-29T02:13:49.641Z,21.1282
2023-03-29T02:14:51.304Z,21.1192
2023-03-29T02:15:53.117Z,21.1014
2023-03-29T02:16:54.633Z,21.0909
2023-03-29T02:17:56.262Z,21.0896
2023-03-29T02:18:57.933Z,21.0946
2023-03-29T02:19:59.549Z,21.1099
2023-03-29T02:21:01.441Z,21.1287
2023-03-29T02:22:02.892Z,21.1367
2023-03-29T02:23:04.537Z,21.1423
2023-03-29T02:24:06.156Z,21.1438
2023-03-29T02:25:07.841Z,21.1439
2023-03-29T02:26:09.460Z,21.1450
2023-03-29T02:27:11.178Z,21.1471
2023-03-29T02:28:12.781Z,21.1390
2023-03-29T02:29:14.446Z,21.1464
2023-03-29T02:30:16.083Z,21.1487
2023-03-29T02:31:17.788Z,21.1554
2023-03-29T02:32:19.405Z,21.1554
2023-03-29T02:33:21.048Z,21.1600
2023-03-29T02:34:22.756Z,21.1630
2023-03-29T02:35:24.359Z,21.1588
2023-03-29T02:36:25.987Z,21.1607
2023-03-29T02:37:27.686Z,21.1611
2023-03-29T02:38:29.303Z,21.1609
2023-03-29T02:39:30.972Z,21.1620
2023-03-29T02:40:32.609Z,21.1557
2023-03-29T02:41:34.262Z,21.1590
2023-03-29T02:42:35.949Z,21.1604
2023-03-29T02:43:37.572Z,21.1552
2023-03-29T02:44:39.278Z,21.1555
2023-03-29T02:45:40.936Z,21.1615
2023-03-29T02:46:42.691Z,21.1653
2023-03-29T02:47:44.364Z,21.1630
2023-03-29T02:48:45.887Z,21.1629
2023-03-29T02:49:50.343Z,21.1637
2023-03-29T02:50:49.215Z,21.1609
2023-03-29T02:51:50.844Z,21.1573
2023-03-29T02:52:52.562Z,21.1621
2023-03-29T02:53:54.148Z,21.1640
2023-03-29T02:54:55.829Z,21.1588
2023-03-29T02:55:57.449Z,21.1548
2023-03-29T02:56:59.160Z,21.1652
2023-03-29T02:58:00.780Z,21.1606
2023-03-29T02:59:02.433Z,21.1578
2023-03-29T03:00:04.075Z,21.1664
2023-03-29T03:01:05.730Z,21.1694
2023-03-29T03:02:07.435Z,21.1660
2023-03-29T03:03:09.214Z,21.1623
2023-03-29T03:04:10.749Z,21.1635
2023-03-29T03:05:12.352Z,21.1614
2023-03-29T03:06:14.931Z,21.1631
2023-03-29T03:07:15.663Z,21.1667
2023-03-29T03:08:17.304Z,21.1660
2023-03-29T03:09:18.949Z,21.1701
2023-03-29T03:10:20.601Z,21.1780
2023-03-29T03:11:22.260Z,21.1735
2023-03-29T03:12:23.902Z,21.1739
2023-03-29T03:13:25.590Z,21.1780
2023-03-29T03:14:27.209Z,21.1619
2023-03-29T03:15:28.875Z,21.1566
2023-03-29T03:16:30.588Z,21.1610
2023-03-29T03:17:32.195Z,21.1656
2023-03-29T03:18:33.998Z,21.1557
2023-03-29T03:19:35.485Z,21.1557
2023-03-29T03:20:37.095Z,21.1617
2023-03-29T03:21:38.786Z,21.1561
2023-03-29T03:22:40.420Z,21.1525
2023-03-29T03:23:42.123Z,21.1485
2023-03-29T03:24:43.704Z,21.1456
2023-03-29T03:25:45.366Z,21.1438
2023-03-29T03:26:47.016Z,21.1346
2023-03-29T03:27:48.691Z,21.1302
2023-03-29T03:28:50.351Z,21.1330
2023-03-29T03:29:51.982Z,21.1381
2023-03-29T03:30:53.640Z,21.1415
2023-03-29T03:31:55.310Z,21.1445
2023-03-29T03:32:56.953Z,21.1429
2023-03-29T03:33:58.594Z,21.1497
2023-03-29T03:35:00.216Z,21.1466
2023-03-29T03:36:01.983Z,21.1420
2023-03-29T03:37:03.522Z,21.1494
2023-03-29T03:38:05.195Z,21.1441
2023-03-29T03:39:06.841Z,21.1445
2023-03-29T03:40:08.495Z,21.1393
2023-03-29T03:41:10.133Z,21.1309
2023-03-29T03:42:11.804Z,21.1278
2023-03-29T03:43:13.434Z,21.1282
2023-03-29T03:44:15.134Z,21.1233
2023-03-29T03:45:16.745Z,21.1110
2023-03-29T03:46:18.500Z,21.1007
2023-03-29T03:47:20.046Z,21.0976
2023-03-29T03:48:21.726Z,21.0988
2023-03-29T03:49:23.408Z,21.1018
2023-03-29T03:50:25.024Z,21.1068
2023-03-29T03:51:26.666Z,21.1059
2023-03-29T03:52:28.336Z,21.1012
2023-03-29T03:53:29.973Z,21.0986
2023-03-29T03:54:31.664Z,21.0964
2023-03-29T03:55:33.309Z,21.1017
2023-03-29T03:56:34.964Z,21.1093
2023-03-29T03:57:36.584Z,21.1076
2023-03-29T03:58:38.254Z,21.1049
2023-03-29T03:59:39.919Z,21.1039
2023-03-29T04:00:41.563Z,21.0986
2023-03-29T04:01:43.208Z,21.0893
2023-03-29T04:02:44.904Z,21.0910
2023-03-29T04:03:46.543Z,21.0948
2023-03-29T04:04:48.188Z,21.0889
2023-03-29T04:05:49.812Z,21.0860
2023-03-29T04:06:51.497Z,21.0834
2023-03-29T04:07:53.121Z,21.0848
2023-03-29T04:08:54.792Z,21.0816
2023-03-29T04:09:56.462Z,21.0865
2023-03-29T04:10:58.107Z,21.0830
2023-03-29T04:11:59.745Z,21.0874
2023-03-29T04:13:01.462Z,21.0874
2023-03-29T04:14:03.056Z,21.0763
2023-03-29T04:15:04.748Z,21.0708
2023-03-29T04:16:06.392Z,21.0675
2023-03-29T04:17:08.052Z,21.0632
2023-03-29T04:18:09.757Z,21.0639
2023-03-29T04:19:11.349Z,21.0660
2023-03-29T04:20:13.015Z,21.0710
2023-03-29T04:21:14.648Z,21.0709
2023-03-29T04:22:16.284Z,21.0654
2023-03-29T04:23:17.975Z,21.0691
2023-03-29T04:24:19.604Z,21.0703
2023-03-29T04:25:21.294Z,21.0695
2023-03-29T04:26:22.915Z,21.0692
2023-03-29T04:27:24.565Z,21.0655
2023-03-29T04:28:26.253Z,21.0671
2023-03-29T04:29:27.853Z,21.0744
2023-03-29T04:30:29.546Z,21.0716
2023-03-29T04:31:31.272Z,21.0663
2023-03-29T04:32:32.855Z,21.0635
2023-03-29T04:33:34.472Z,21.0649
2023-03-29T04:34:36.140Z,21.0539
2023-03-29T04:35:37.851Z,21.0547
2023-03-29T04:36:39.453Z,21.0527
2023-03-29T04:37:41.078Z,21.0503
2023-03-29T04:38:46.097Z,21.0517
2023-03-29T04:39:44.380Z,21.0480
2023-03-29T04:40:46.072Z,21.0487
2023-03-29T04:41:47.687Z,21.0435
2023-03-29T04:42:49.365Z,21.0392
2023-03-29T04:43:51.000Z,21.0330
2023-03-29T04:44:52.698Z,21.0327
2023-03-29T04:45:54.379Z,20.8170
2023-03-29T04:46:55.992Z,20.3009
2023-03-29T04:47:57.663Z,19.9872
2023-03-29T04:48:59.317Z,19.7175
2023-03-29T04:50:00.912Z,19.4484
2023-03-29T04:51:02.777Z,19.3785
2023-03-29T04:52:04.226Z,19.3994
2023-03-29T04:53:05.896Z,19.5604
2023-03-29T04:54:07.530Z,19.7462
2023-03-29T04:55:09.232Z,19.8591
2023-03-29T04:56:10.858Z,19.9823
2023-03-29T04:57:12.559Z,20.1244
2023-03-29T04:58:14.121Z,20.2331
2023-03-29T04:59:15.795Z,20.3169
2023-03-29T05:00:17.463Z,20.4000
2023-03-29T05:01:19.171Z,20.4429
2023-03-29T05:02:20.736Z,20.4820
2023-03-29T05:03:22.418Z,20.5033
2023-03-29T05:04:24.065Z,20.4990
2023-03-29T05:05:25.732Z,20.4907
2023-03-29T05:06:27.376Z,20.5124
2023-03-29T05:07:29.085Z,20.5475
2023-03-29T05:08:30.664Z,20.5720
2023-03-29T05:09:35.037Z,20.5637
2023-03-29T05:10:33.977Z,20.5399
2023-03-29T05:11:35.678Z,20.5593
2023-03-29T05:12:37.285Z,20.5855
2023-03-29T05:13:38.937Z,20.5911
2023-03-29T05:14:40.589Z,20.6071
2023-03-29T05:15:42.267Z,20.6238
2023-03-29T05:16:43.999Z,20.6138
2023-03-29T05:17:45.576Z,20.5793
2023-03-29T05:18:47.214Z,20.5426
2023-03-29T05:19:48.883Z,20.5098
2023-03-29T05:20:50.535Z,20.4967
2023-03-29T05:21:52.219Z,20.4987
2023-03-29T05:22:53.858Z,20.4890
2023-03-29T05:23:55.503Z,20.4710
2023-03-29T05:24:57.135Z,20.4887
2023-03-29T05:25:58.808Z,20.5361
2023-03-29T05:27:00.468Z,20.5827
2023-03-29T05:28:02.112Z,20.5949
2023-03-29T05:29:03.749Z,20.5491
2023-03-29T05:30:05.422Z,20.5058
2023-03-29T05:31:07.068Z,20.4809
2023-03-29T05:32:08.857Z,20.4664
2023-03-29T05:33:10.405Z,20.4580
2023-03-29T05:34:12.032Z,20.4550
2023-03-29T05:35:13.661Z,20.4543
2023-03-29T05:36:15.408Z,20.4470
2023-03-29T05:37:17.024Z,20.4355
2023-03-29T05:38:18.648Z,20.4421
2023-03-29T05:39:20.283Z,20.4410
2023-03-29T05:40:21.966Z,20.4573
2023-03-29T05:41:23.622Z,20.5577
2023-03-29T05:42:25.283Z,20.6655
2023-03-29T05:43:26.898Z,20.7372
2023-03-29T05:44:28.581Z,20.7858
2023-03-29T05:45:30.276Z,20.8113
2023-03-29T05:46:31.896Z,20.7860
2023-03-29T05:47:33.637Z,20.7841
2023-03-29T05:48:35.303Z,20.7787
2023-03-29T05:49:36.852Z,20.7698
2023-03-29T05:50:38.476Z,20.7484
2023-03-29T05:51:40.145Z,20.7170
2023-03-29T05:52:41.810Z,20.6953
2023-03-29T05:53:43.466Z,20.6828
2023-03-29T05:54:45.135Z,20.6628
2023-03-29T05:55:46.782Z,20.6364
2023-03-29T05:56:48.456Z,20.6350
2023-03-29T05:57:50.106Z,20.6258
2023-03-29T05:58:53.657Z,20.6143
2023-03-29T05:59:53.411Z,20.6089
2023-03-29T06:00:55.010Z,20.6005
2023-03-29T06:01:56.734Z,20.5999
2023-03-29T06:03:03.780Z,20.6073
2023-03-29T06:04:00.102Z,20.6031
2023-03-29T06:05:01.657Z,20.6181
2023-03-29T06:06:03.310Z,20.6382
2023-03-29T06:07:04.934Z,20.6367
2023-03-29T06:08:06.631Z,20.5848
2023-03-29T06:09:08.250Z,20.5414
2023-03-29T06:10:09.918Z,20.5344
2023-03-29T06:11:11.543Z,20.3002
2023-03-29T06:12:13.216Z,19.7821
2023-03-29T06:13:14.878Z,19.4116
2023-03-29T06:14:16.516Z,19.2254
2023-03-29T06:15:18.156Z,18.9609
2023-03-29T06:16:19.839Z,18.7733
2023-03-29T06:17:21.457Z,18.6544
2023-03-29T06:18:23.180Z,18.7498
2023-03-29T06:19:24.764Z,18.9263
2023-03-29T06:20:26.447Z,19.1395
2023-03-29T06:21:28.063Z,19.3006
2023-03-29T06:22:29.754Z,19.4576
2023-03-29T06:23:31.411Z,19.5949
2023-03-29T06:24:33.044Z,19.6617
2023-03-29T06:25:34.699Z,19.6977
2023-03-29T06:26:36.349Z,19.7573
2023-03-29T06:27:38.008Z,19.7725
2023-03-29T06:28:39.702Z,19.7864
2023-03-29T06:29:41.298Z,19.8311
2023-03-29T06:30:42.962Z,19.8878
2023-03-29T06:31:44.668Z,19.9209
2023-03-29T06:32:46.332Z,19.9586
2023-03-29T06:33:47.931Z,19.9566
2023-03-29T06:34:49.600Z,19.9369
2023-03-29T06:35:51.305Z,19.9367
2023-03-29T06:36:52.888Z,19.9358
2023-03-29T06:37:54.562Z,19.9371
2023-03-29T06:38:56.240Z,19.9451
2023-03-29T06:39:57.841Z,19.9645
2023-03-29T06:40:59.610Z,20.0068
2023-03-29T06:42:10.057Z,20.0534
2023-03-29T06:43:02.804Z,20.1498
2023-03-29T06:44:04.450Z,20.1506
2023-03-29T06:45:06.138Z,20.1199
2023-03-29T06:46:07.790Z,20.0960
2023-03-29T06:47:09.528Z,20.0838
2023-03-29T06:48:11.171Z,20.0774
2023-03-29T06:49:12.869Z,20.1420
2023-03-29T06:50:14.445Z,20.1950
2023-03-29T06:51:16.118Z,20.2540
2023-03-29T06:52:17.744Z,20.2985
2023-03-29T06:53:19.415Z,20.3443
2023-03-29T06:54:21.142Z,20.3960
2023-03-29T06:55:22.721Z,20.4312
2023-03-29T06:56:24.370Z,20.4630
2023-03-29T06:57:26.177Z,20.4506
2023-03-29T06:58:27.662Z,20.4462
2023-03-29T06:59:29.368Z,20.4916
2023-03-29T07:00:30.988Z,20.4971
2023-03-29T07:01:32.651Z,20.4981
2023-03-29T07:02:34.285Z,20.5052
2023-03-29T07:03:35.959Z,20.5112
2023-03-29T07:04:37.670Z,20.5070
2023-03-29T07:05:39.311Z,20.4896
2023-03-29T07:06:40.889Z,20.4985
2023-03-29T07:07:42.559Z,20.4961
2023-03-29T07:08:44.202Z,20.4828
2023-03-29T07:09:45.880Z,20.4755
2023-03-29T07:10:47.602Z,20.4968
2023-03-29T07:11:49.168Z,20.5079
2023-03-29T07:12:50.796Z,20.5133
2023-03-29T07:13:52.490Z,20.5324
2023-03-29T07:14:54.147Z,20.5356
2023-03-29T07:15:55.838Z,20.5419
2023-03-29T07:16:57.445Z,20.5409
2023-03-29T07:17:59.181Z,20.5361
2023-03-29T07:19:00.738Z,20.5318
2023-03-29T07:20:02.499Z,20.5249
2023-03-29T07:21:04.154Z,20.5094
2023-03-29T07:22:05.708Z,20.5072
2023-03-29T07:23:07.370Z,20.5125
2023-03-29T07:24:09.007Z,20.5464
2023-03-29T07:25:10.693Z,20.5212
2023-03-29T07:26:12.323Z,20.5213
2023-03-29T07:27:13.977Z,20.5257
2023-03-29T07:28:15.670Z,20.5425
2023-03-29T07:29:17.288Z,20.5793
2023-03-29T07:30:18.942Z,20.5946
2023-03-29T07:31:20.558Z,20.5589
2023-03-29T07:32:22.497Z,20.5192
2023-03-29T07:33:23.998Z,20.5158
2023-03-29T07:34:25.540Z,20.5151
2023-03-29T07:35:27.189Z,20.5143
2023-03-29T07:36:28.870Z,20.5165
2023-03-29T07:37:30.493Z,20.5144
2023-03-29T07:38:32.179Z,20.5108
2023-03-29T07:39:33.797Z,20.5137
2023-03-29T07:40:35.476Z,20.5302
2023-03-29T07:41:37.099Z,20.5024
2023-03-29T07:42:38.792Z,20.4766
2023-03-29T07:43:40.422Z,20.4697
2023-03-29T07:44:42.097Z,20.4671
2023-03-29T07:45:43.743Z,20.4852
2023-03-29T07:46:45.412Z,20.4820
2023-03-29T07:47:47.032Z,20.4767
2023-03-29T07:48:48.696Z,20.4549
2023-03-29T07:49:50.330Z,20.4567
2023-03-29T07:50:52.048Z,20.4835
2023-03-29T07:51:53.635Z,20.5168
2023-03-29T07:52:55.286Z,20.5352
2023-03-29T07:53:56.958Z,20.5355
2023-03-29T07:54:58.589Z,20.5192
2023-03-29T07:56:00.270Z,20.4910
2023-03-29T07:57:01.978Z,20.4581
2023-03-29T07:58:03.548Z,20.4267
2023-03-29T07:59:05.221Z,20.4040
2023-03-29T08:00:06.856Z,20.3892
2023-03-29T08:01:08.639Z,20.3827
2023-03-29T08:02:10.161Z,20.3992
2023-03-29T08:03:11.895Z,20.4185
2023-03-29T08:04:13.534Z,20.4136
2023-03-29T08:05:17.476Z,20.4116
2023-03-29T08:06:16.838Z,20.4122
2023-03-29T08:07:18.967Z,20.4522
2023-03-29T08:08:20.078Z,20.4717
2023-03-29T08:09:21.766Z,20.4602
2023-03-29T08:10:23.384Z,20.4470
2023-03-29T08:11:25.074Z,20.4765
2023-03-29T08:12:26.700Z,20.4765
2023-03-29T08:13:28.362Z,20.4670
2023-03-29T08:14:30.009Z,20.4491
2023-03-29T08:15:31.667Z,20.4681
2023-03-29T08:16:33.406Z,20.4844
2023-03-29T08:17:35.082Z,20.4652
2023-03-29T08:18:36.737Z,20.4567
2023-03-29T08:19:38.290Z,20.4809
2023-03-29T08:20:39.919Z,20.4948
2023-03-29T08:21:41.619Z,20.4937
2023-03-29T08:22:43.228Z,20.4721
2023-03-29T08:23:44.918Z,20.4607
2023-03-29T08:24:46.547Z,20.4600
2023-03-29T08:25:48.247Z,20.4681
2023-03-29T08:26:49.883Z,20.4925
2023-03-29T08:27:51.520Z,20.4945
2023-03-29T08:28:53.157Z,20.4847
2023-03-29T08:29:54.836Z,20.4862
2023-03-29T08:30:56.485Z,20.4635
2023-03-29T08:31:58.159Z,20.4540
2023-03-29T08:32:59.787Z,20.4471
2023-03-29T08:34:01.437Z,20.4629
2023-03-29T08:35:03.078Z,20.4765
2023-03-29T08:36:04.780Z,20.4685
2023-03-29T08:37:06.414Z,20.4660
2023-03-29T08:38:08.067Z,20.4645
2023-03-29T08:39:09.686Z,20.4711
2023-03-29T08:40:11.363Z,20.5212
2023-03-29T08:41:13.000Z,20.5502
2023-03-29T08:42:14.689Z,20.5846
2023-03-29T08:43:16.287Z,20.5866
2023-03-29T08:44:17.974Z,20.5404
2023-03-29T08:45:19.646Z,20.2953
2023-03-29T08:46:21.346Z,20.2903
2023-03-29T08:47:22.933Z,20.3385
2023-03-29T08:48:24.573Z,20.3662
2023-03-29T08:49:26.251Z,20.3746
2023-03-29T08:50:27.888Z,20.3706
2023-03-29T08:51:29.532Z,20.3966
2023-03-29T08:52:31.290Z,20.4529
2023-03-29T08:53:32.858Z,20.4765
2023-03-29T08:54:34.517Z,20.4750
2023-03-29T08:55:36.145Z,20.4583
2023-03-29T08:56:37.835Z,20.4206
2023-03-29T08:57:39.559Z,20.4536
2023-03-29T08:58:41.134Z,20.5073
2023-03-29T08:59:42.743Z,20.5133
2023-03-29T09:00:44.431Z,20.5168
2023-03-29T09:01:48.447Z,20.5179
2023-03-29T09:02:47.829Z,20.5447
2023-03-29T09:03:49.473Z,20.5560
2023-03-29T09:04:51.013Z,20.5813
2023-03-29T09:05:52.649Z,20.5698
2023-03-29T09:06:54.339Z,20.5466
2023-03-29T09:07:55.976Z,20.5489
2023-03-29T09:08:57.633Z,20.5500
2023-03-29T09:09:59.263Z,20.5418
2023-03-29T09:11:01.091Z,20.5842
2023-03-29T09:12:02.570Z,20.6015
2023-03-29T09:13:04.299Z,20.6169
2023-03-29T09:14:05.879Z,20.5985
2023-03-29T09:15:07.549Z,20.5907
2023-03-29T09:16:09.173Z,20.6165
2023-03-29T09:17:10.868Z,20.6264
2023-03-29T09:18:12.556Z,20.6290
2023-03-29T09:19:14.172Z,20.6555
2023-03-29T09:20:15.802Z,20.6678
2023-03-29T09:21:17.462Z,20.6716
2023-03-29T09:22:20.078Z,20.6591
2023-03-29T09:23:20.793Z,20.6460
2023-03-29T09:24:22.423Z,20.6557
2023-03-29T09:25:24.097Z,20.6284
2023-03-29T09:26:25.740Z,20.5967
2023-03-29T09:27:27.393Z,20.5884
2023-03-29T09:28:29.049Z,20.5813
2023-03-29T09:29:30.703Z,20.5600
2023-03-29T09:30:32.360Z,20.5556
2023-03-29T09:31:34.042Z,20.5531
2023-03-29T09:32:35.706Z,20.5717
2023-03-29T09:33:37.406Z,20.5625
2023-03-29T09:34:38.970Z,20.5570
2023-03-29T09:35:40.640Z,20.5837
2023-03-29T09:36:42.269Z,20.5894
2023-03-29T09:37:43.934Z,20.6019
2023-03-29T09:38:45.604Z,20.5926
2023-03-29T09:39:47.267Z,20.5883
2023-03-29T09:40:48.900Z,20.5915
2023-03-29T09:41:50.545Z,20.6086
2023-03-29T09:42:52.331Z,20.6080
2023-03-29T09:43:53.896Z,20.6255
2023-03-29T09:44:55.489Z,20.6368
2023-03-29T09:45:57.238Z,20.6497
2023-03-29T09:46:58.857Z,20.6637
2023-03-29T09:48:00.572Z,20.6631
2023-03-29T09:49:02.169Z,20.6669
2023-03-29T09:50:03.799Z,20.6689
2023-03-29T09:51:05.431Z,20.6714
2023-03-29T09:52:07.075Z,20.6707
2023-03-29T09:53:08.726Z,20.6567
2023-03-29T09:54:10.436Z,20.6597
2023-03-29T09:55:12.030Z,20.6680
2023-03-29T09:56:13.699Z,20.6594
2023-03-29T09:57:15.415Z,20.6689
2023-03-29T09:58:17.026Z,20.6777
2023-03-29T09:59:18.691Z,20.6826
2023-03-29T10:00:20.313Z,20.6767
2023-03-29T10:01:21.949Z,20.6846
2023-03-29T10:02:23.628Z,20.6834
2023-03-29T10:03:25.241Z,20.6583
2023-03-29T10:04:26.992Z,20.6451
2023-03-29T10:05:28.548Z,20.6615
2023-03-29T10:06:30.215Z,20.6582
2023-03-29T10:07:31.852Z,20.6754
2023-03-29T10:08:33.578Z,20.6915
2023-03-29T10:09:35.200Z,20.6937
2023-03-29T10:10:36.889Z,20.7097
2023-03-29T10:11:38.498Z,20.7292
2023-03-29T10:12:40.138Z,20.7327
2023-03-29T10:13:41.777Z,20.7065
2023-03-29T10:14:43.468Z,20.6878
2023-03-29T10:15:45.103Z,20.6914
2023-03-29T10:16:46.874Z,20.6839
2023-03-29T10:17:48.467Z,20.7045
2023-03-29T10:18:50.061Z,20.7040
2023-03-29T10:19:51.741Z,20.7048
2023-03-29T10:20:53.384Z,20.7185
2023-03-29T10:21:55.023Z,20.7417
2023-03-29T10:22:56.674Z,20.7579
2023-03-29T10:23:58.304Z,20.7607
2023-03-29T10:25:00.031Z,20.7689
2023-03-29T10:26:01.625Z,20.7803
2023-03-29T10:27:03.290Z,20.7823
2023-03-29T10:28:04.935Z,20.7945
2023-03-29T10:29:06.594Z,20.8074
2023-03-29T10:30:08.253Z,20.8166
2023-03-29T10:31:09.928Z,20.8232
2023-03-29T10:32:11.574Z,20.8268
2023-03-29T10:33:13.219Z,20.8389
2023-03-29T10:34:14.830Z,20.8428
2023-03-29T10:35:16.536Z,20.8412
2023-03-29T10:36:18.156Z,20.8574
2023-03-29T10:37:19.818Z,20.8704
2023-03-29T10:38:21.486Z,20.8759
2023-03-29T10:39:23.112Z,20.8668
2023-03-29T10:40:24.787Z,20.8808
2023-03-29T10:41:26.414Z,20.9026
2023-03-29T10:42:28.047Z,20.9182
2023-03-29T10:43:29.799Z,20.9273
2023-03-29T10:44:33.174Z,20.9301
2023-03-29T10:45:33.073Z,20.9331
2023-03-29T10:46:34.789Z,20.9307
2023-03-29T10:47:36.361Z,20.5012
2023-03-29T10:48:38.023Z,19.7153
2023-03-29T10:49:39.656Z,19.7044
2023-03-29T10:50:41.367Z,19.8560
2023-03-29T10:51:43.018Z,19.9862
2023-03-29T10:52:44.650Z,20.0831
2023-03-29T10:53:46.325Z,20.1435
2023-03-29T10:54:47.956Z,20.1708
2023-03-29T10:55:49.657Z,20.1923
2023-03-29T10:56:52.558Z,20.2091
2023-03-29T10:57:52.925Z,20.2213
2023-03-29T10:58:54.574Z,20.2398
2023-03-29T10:59:56.218Z,20.2557
2023-03-29T11:00:57.875Z,20.2636
2023-03-29T11:01:59.561Z,20.2802
2023-03-29T11:03:01.217Z,20.3032
2023-03-29T11:04:02.909Z,20.3208
2023-03-29T11:05:04.441Z,20.3373
2023-03-29T11:06:06.141Z,20.3485
2023-03-29T11:07:07.751Z,20.3420
2023-03-29T11:08:09.439Z,20.3375
2023-03-29T11:09:11.054Z,20.3656
2023-03-29T11:10:12.738Z,20.3930
2023-03-29T11:11:14.406Z,20.4048
2023-03-29T11:12:16.659Z,20.4284
2023-03-29T11:13:17.694Z,20.4423
2023-03-29T11:14:19.331Z,20.4411
2023-03-29T11:15:20.950Z,20.4582
2023-03-29T11:16:22.906Z,20.4772
2023-03-29T11:17:24.275Z,20.4738
2023-03-29T11:18:25.929Z,20.4641
2023-03-29T11:19:27.574Z,20.4584
2023-03-29T11:20:29.241Z,20.4456
2023-03-29T11:21:30.897Z,20.4349
2023-03-29T11:22:32.560Z,20.4314
2023-03-29T11:23:34.196Z,20.4305
2023-03-29T11:24:35.875Z,20.4301
2023-03-29T11:25:37.478Z,20.4316
2023-03-29T11:26:39.203Z,20.4437
2023-03-29T11:27:40.787Z,20.4502
2023-03-29T11:28:42.468Z,20.4509
2023-03-29T11:29:44.126Z,20.4465
2023-03-29T11:30:45.798Z,20.4438
2023-03-29T11:31:47.508Z,20.4417
2023-03-29T11:32:49.086Z,20.4453
2023-03-29T11:33:50.713Z,20.4470
2023-03-29T11:34:52.384Z,20.4464
2023-03-29T11:35:54.064Z,20.4514
2023-03-29T11:36:55.727Z,20.4528
2023-03-29T11:37:57.313Z,20.4526
2023-03-29T11:38:58.968Z,20.4485
2023-03-29T11:40:00.611Z,20.4513
2023-03-29T11:41:02.596Z,20.4538
2023-03-29T11:42:03.935Z,20.4574
2023-03-29T11:43:05.576Z,20.4615
2023-03-29T11:44:07.236Z,20.4682
2023-03-29T11:45:08.874Z,20.4686
2023-03-29T11:46:10.523Z,20.4731
2023-03-29T11:47:12.233Z,20.4752
2023-03-29T11:48:13.821Z,20.4769
2023-03-29T11:49:15.489Z,20.4792
2023-03-29T11:50:17.142Z,20.4831
2023-03-29T11:51:18.791Z,20.4963
2023-03-29T11:52:20.468Z,20.5364
2023-03-29T11:53:22.080Z,20.5624
2023-03-29T11:54:23.758Z,20.5908
2023-03-29T11:55:25.398Z,20.5800
2023-03-29T11:56:27.042Z,20.6010
2023-03-29T11:57:28.861Z,20.5923
2023-03-29T11:58:30.344Z,20.6357
2023-03-29T11:59:31.992Z,20.7417
2023-03-29T12:00:33.659Z,20.8465
2023-03-29T12:01:35.299Z,20.8747
2023-03-29T12:02:37.105Z,20.8728
2023-03-29T12:03:38.797Z,20.8563
2023-03-29T12:04:40.297Z,20.7619
2023-03-29T12:05:41.894Z,20.6352
2023-03-29T12:06:43.578Z,20.5375
2023-03-29T12:07:45.237Z,20.4392
2023-03-29T12:08:46.900Z,20.3837
2023-03-29T12:09:48.516Z,20.3055
2023-03-29T12:10:50.192Z,20.2431
2023-03-29T12:11:51.827Z,20.1585
2023-03-29T12:12:53.548Z,20.0985
2023-03-29T12:13:55.148Z,20.0353
2023-03-29T12:14:57.125Z,20.0259
2023-03-29T12:15:58.454Z,20.0297
2023-03-29T12:17:00.158Z,19.9894
2023-03-29T12:18:01.801Z,19.9946
2023-03-29T12:19:03.411Z,20.0430
2023-03-29T12:20:05.077Z,20.0245
2023-03-29T12:21:06.877Z,19.9793
2023-03-29T12:22:08.363Z,19.9027
2023-03-29T12:23:10.071Z,19.7942
2023-03-29T12:24:11.688Z,19.7467
2023-03-29T12:25:14.312Z,19.7184